createdAt,value
2022-09-13T00:01:09.511Z,3.60
2022-09-13T00:03:39.238Z,3.53
2022-09-13T00:06:13.818Z,3.22
2022-09-13T00:08:42.935Z,4.15
2022-09-13T00:11:17.985Z,2.92
2022-09-13T00:13:46.997Z,3.28
2022-09-13T00:16:18.401Z,3.70
2022-09-13T00:18:48.816Z,3.05
2022-09-13T00:21:20.266Z,3.35
2022-09-13T00:23:50.898Z,3.75
2022-09-13T00:26:23.125Z,4.50
2022-09-13T00:28:52.999Z,3.83
2022-09-13T00:31:23.404Z,5.35
2022-09-13T00:33:53.262Z,3.95
2022-09-13T00:36:21.587Z,6.80
2022-09-13T00:38:49.802Z,4.35
2022-09-13T00:41:21.162Z,3.58
2022-09-13T00:43:55.065Z,3.78
2022-09-13T00:46:33.479Z,3.47
2022-09-13T00:49:13.627Z,4.22
2022-09-13T00:51:48.450Z,2.20
2022-09-13T00:54:18.823Z,3.92
2022-09-13T00:56:51.817Z,4.40
2022-09-13T00:59:26.066Z,4.30
2022-09-13T01:01:58.359Z,2.65
2022-09-13T01:04:30.870Z,3.95
2022-09-13T01:07:04.415Z,5.57
2022-09-13T01:09:36.311Z,4.35
2022-09-13T01:12:10.252Z,4.03
2022-09-13T01:14:39.909Z,3.67
2022-09-13T01:17:09.107Z,7.60
2022-09-13T01:19:38.967Z,3.85
2022-09-13T01:23:04.425Z,4.55
2022-09-13T01:26:30.196Z,5.28
2022-09-13T01:29:57.651Z,3.67
2022-09-13T01:32:39.109Z,3.00
2022-09-13T01:35:18.592Z,4.35
2022-09-13T01:37:55.693Z,4.03
2022-09-13T01:40:45.140Z,4.13
2022-09-13T01:43:33.351Z,4.95
2022-09-13T01:46:07.588Z,4.22
2022-09-13T01:48:55.303Z,4.13
2022-09-13T01:51:30.599Z,3.72
2022-09-13T01:54:14.191Z,2.67
2022-09-13T01:56:52.935Z,4.03
2022-09-13T01:59:32.098Z,3.83
2022-09-13T02:02:06.251Z,4.55
2022-09-13T02:04:41.180Z,3.28
2022-09-13T02:07:14.899Z,5.30
2022-09-13T02:09:48.673Z,2.85
2022-09-13T02:12:21.741Z,3.22
2022-09-13T02:14:57.597Z,4.45
2022-09-13T02:17:31.133Z,3.38
2022-09-13T02:20:05.363Z,2.83
2022-09-13T02:22:37.102Z,6.03
2022-09-13T02:25:11.592Z,3.00
2022-09-13T02:27:45.963Z,3.45
2022-09-13T02:30:16.175Z,2.28
2022-09-13T02:32:51.024Z,3.63
2022-09-13T02:35:25.951Z,6.55
2022-09-13T02:38:02.028Z,3.40
2022-09-13T02:40:36.989Z,8.90
2022-09-13T02:43:11.023Z,2.65
2022-09-13T02:45:48.120Z,2.85
2022-09-13T02:48:23.379Z,2.65
2022-09-13T02:51:04.317Z,4.38
2022-09-13T02:53:43.265Z,2.78
2022-09-13T02:56:25.412Z,2.67
2022-09-13T02:59:01.794Z,5.40
2022-09-13T03:01:30.467Z,5.90
2022-09-13T03:03:58.727Z,4.65
2022-09-13T03:06:30.525Z,4.05
2022-09-13T03:09:02.915Z,2.97
2022-09-13T03:11:45.274Z,5.43
2022-09-13T03:14:28.946Z,3.10
2022-09-13T03:17:20.375Z,2.67
2022-09-13T03:20:11.837Z,2.50
2022-09-13T03:23:37.381Z,2.78
2022-09-13T03:26:27.991Z,2.53
2022-09-13T03:29:25.729Z,4.45
2022-09-13T03:32:12.804Z,7.13
2022-09-13T03:34:49.808Z,6.15
2022-09-13T03:37:26.881Z,6.72
2022-09-13T03:40:01.699Z,8.77
2022-09-13T03:42:36.937Z,4.90
2022-09-13T03:45:07.779Z,3.15
2022-09-13T03:47:38.778Z,3.45
2022-09-13T03:52:39.762Z,3.78
2022-09-13T03:55:11.281Z,3.58
2022-09-13T03:57:39.510Z,3.05
2022-09-13T04:00:09.460Z,3.72
2022-09-13T04:02:37.743Z,5.10
2022-09-13T04:05:07.097Z,2.70
2022-09-13T04:07:35.365Z,2.83
2022-09-13T04:10:03.601Z,4.20
2022-09-13T04:12:33.242Z,2.97
2022-09-13T04:15:01.489Z,2.25
2022-09-13T04:17:29.869Z,2.97
2022-09-13T04:19:58.145Z,3.53
2022-09-13T04:22:26.570Z,3.97
2022-09-13T04:24:58.067Z,3.33
2022-09-13T04:27:28.553Z,2.85
2022-09-13T04:29:58.218Z,3.55
2022-09-13T04:32:26.583Z,3.85
2022-09-13T04:34:54.915Z,4.45
2022-09-13T04:37:23.711Z,4.85
2022-09-13T04:39:52.069Z,2.95
2022-09-13T04:42:20.629Z,8.85
2022-09-13T04:44:49.824Z,6.43
2022-09-13T04:47:19.547Z,6.28
2022-09-13T04:49:48.589Z,2.83
2022-09-13T04:52:16.964Z,4.43
2022-09-13T04:54:45.269Z,3.72
2022-09-13T04:57:13.535Z,2.78
2022-09-13T04:59:41.898Z,2.53
2022-09-13T05:02:10.404Z,2.78
2022-09-13T05:04:40.131Z,3.90
2022-09-13T05:07:08.514Z,3.25
2022-09-13T05:09:36.795Z,2.35
2022-09-13T05:12:08.307Z,3.13
2022-09-13T05:14:36.618Z,3.75
2022-09-13T05:17:05.190Z,3.78
2022-09-13T05:19:33.543Z,2.80
2022-09-13T05:22:03.544Z,3.33
2022-09-13T05:24:32.063Z,2.10
2022-09-13T05:27:00.375Z,1.83
2022-09-13T05:29:28.597Z,2.63
2022-09-13T05:31:56.862Z,4.28
2022-09-13T05:34:25.098Z,2.83
2022-09-13T05:36:54.369Z,2.67
2022-09-13T05:39:34.059Z,3.88
2022-09-13T05:42:12.141Z,2.72
2022-09-13T05:44:40.571Z,3.00
2022-09-13T05:47:08.795Z,4.68
2022-09-13T05:49:45.194Z,2.83
2022-09-13T05:52:25.281Z,2.58
2022-09-13T05:54:54.971Z,4.82
2022-09-13T05:57:23.201Z,3.92
2022-09-13T05:59:54.130Z,4.80
2022-09-13T06:02:22.916Z,2.50
2022-09-13T06:04:52.016Z,4.35
2022-09-13T06:07:20.381Z,5.47
2022-09-13T06:09:48.620Z,4.30
2022-09-13T06:12:18.279Z,2.40
2022-09-13T06:14:46.538Z,2.28
2022-09-13T06:17:15.192Z,3.05
2022-09-13T06:19:43.392Z,3.42
2022-09-13T06:22:11.795Z,2.85
2022-09-13T06:24:40.086Z,5.07
2022-09-13T06:27:08.342Z,5.72
2022-09-13T06:29:38.062Z,2.88
2022-09-13T06:32:06.775Z,3.10
2022-09-13T06:34:35.035Z,2.72
2022-09-13T06:37:04.128Z,4.82
2022-09-13T06:39:34.265Z,4.80
2022-09-13T06:42:02.600Z,3.40
2022-09-13T06:44:31.009Z,3.85
2022-09-13T06:47:00.611Z,3.92
2022-09-13T06:49:31.507Z,4.72
2022-09-13T06:51:59.867Z,6.43
2022-09-13T06:54:28.127Z,3.65
2022-09-13T06:56:56.336Z,3.72
2022-09-13T06:59:24.740Z,4.15
2022-09-13T07:01:52.978Z,3.97
2022-09-13T07:04:23.292Z,4.55
2022-09-13T07:06:51.972Z,6.65
2022-09-13T07:09:22.609Z,4.80
2022-09-13T07:11:53.416Z,3.63
2022-09-13T07:14:24.273Z,4.30
2022-09-13T07:16:52.990Z,3.22
2022-09-13T07:19:26.452Z,3.78
2022-09-13T07:21:56.166Z,3.22
2022-09-13T07:24:25.728Z,4.53
2022-09-13T07:26:54.457Z,5.75
2022-09-13T07:29:24.742Z,9.15
2022-09-13T07:31:55.280Z,4.72
2022-09-13T07:34:27.453Z,5.85
2022-09-13T07:36:55.966Z,3.53
2022-09-13T07:39:24.350Z,4.03
2022-09-13T07:41:53.794Z,3.25
2022-09-13T07:44:22.844Z,6.03
2022-09-13T07:46:51.107Z,7.65
2022-09-13T07:49:20.400Z,5.90
2022-09-13T07:51:51.472Z,4.28
2022-09-13T07:54:20.696Z,3.22
2022-09-13T07:56:50.523Z,3.28
2022-09-13T07:59:20.029Z,4.32
2022-09-13T08:01:50.497Z,5.78
2022-09-13T08:04:21.472Z,4.07
2022-09-13T08:06:51.146Z,3.85
2022-09-13T08:09:19.880Z,5.35
2022-09-13T08:11:51.862Z,4.55
2022-09-13T08:14:22.539Z,3.95
2022-09-13T08:16:51.042Z,4.70
2022-09-13T08:19:20.754Z,4.70
2022-09-13T08:21:50.753Z,4.00
2022-09-13T08:24:21.390Z,4.55
2022-09-13T08:26:52.152Z,5.05
2022-09-13T08:31:48.649Z,5.10
2022-09-13T08:34:18.210Z,7.43
2022-09-13T08:36:46.593Z,6.10
2022-09-13T08:39:16.346Z,5.30
2022-09-13T08:42:05.744Z,6.15
2022-09-13T08:44:37.615Z,5.30
2022-09-13T08:47:28.840Z,6.15
2022-09-13T08:50:06.469Z,5.72
2022-09-13T08:52:39.821Z,7.03
2022-09-13T08:55:27.139Z,5.60
2022-09-13T08:58:02.370Z,5.90
2022-09-13T09:00:36.668Z,9.55
2022-09-13T09:03:20.706Z,10.70
2022-09-13T09:05:51.548Z,5.80
2022-09-13T09:11:03.654Z,6.43
2022-09-13T09:13:36.579Z,6.57
2022-09-13T09:16:13.713Z,8.38
2022-09-13T09:18:46.188Z,8.68
2022-09-13T09:21:18.342Z,13.50
2022-09-13T09:23:52.769Z,7.55
2022-09-13T09:26:26.470Z,10.25
2022-09-13T09:28:57.129Z,6.47
2022-09-13T09:31:35.769Z,7.00
2022-09-13T09:34:15.581Z,6.43
2022-09-13T09:36:50.410Z,6.90
2022-09-13T09:39:18.805Z,7.10
2022-09-13T09:41:48.693Z,6.32
2022-09-13T09:44:22.293Z,9.87
2022-09-13T09:46:56.918Z,8.40
2022-09-13T09:49:52.038Z,8.75
2022-09-13T09:52:28.516Z,7.82
2022-09-13T09:55:06.249Z,7.57
2022-09-13T09:57:59.967Z,7.20
2022-09-13T10:00:31.365Z,7.85
2022-09-13T10:03:04.074Z,9.82
2022-09-13T10:05:33.419Z,8.98
2022-09-13T10:08:04.052Z,7.13
2022-09-13T10:13:15.006Z,7.57
2022-09-13T10:15:55.313Z,9.55
2022-09-13T10:18:43.406Z,6.95
2022-09-13T10:21:24.826Z,12.25
2022-09-13T10:23:55.789Z,9.20
2022-09-13T10:26:25.610Z,11.55
2022-09-13T10:29:11.252Z,8.27
2022-09-13T10:31:43.176Z,8.43
2022-09-13T10:34:20.609Z,9.10
2022-09-13T10:36:56.368Z,9.25
2022-09-13T10:39:26.495Z,9.00
2022-09-13T10:41:57.885Z,7.70
2022-09-13T10:44:35.286Z,13.70
2022-09-13T10:47:07.810Z,12.82
2022-09-13T10:49:46.056Z,15.48
2022-09-13T10:52:34.485Z,13.30
2022-09-13T10:55:37.018Z,16.02
2022-09-13T10:58:20.442Z,11.38
2022-09-13T11:01:18.359Z,15.10
2022-09-13T11:04:27.915Z,11.68
2022-09-13T11:07:09.738Z,20.40
2022-09-13T11:09:44.647Z,11.18
2022-09-13T11:12:20.402Z,6.70
2022-09-13T11:15:03.025Z,12.23
2022-09-13T11:18:03.599Z,16.67
2022-09-13T11:20:45.827Z,7.47
2022-09-13T11:23:47.333Z,6.22
2022-09-13T11:26:38.623Z,7.78
2022-09-13T11:29:21.109Z,7.50
2022-09-13T11:32:00.312Z,6.07
2022-09-13T11:34:41.091Z,24.13
2022-09-13T11:37:41.772Z,12.57
2022-09-13T11:43:23.153Z,6.28
2022-09-13T11:46:06.587Z,7.13
2022-09-13T11:49:03.095Z,8.75
2022-09-13T11:51:47.152Z,7.40
2022-09-13T11:54:34.337Z,8.55
2022-09-13T11:57:07.612Z,7.18
2022-09-13T11:59:42.207Z,5.40
2022-09-13T12:02:20.969Z,5.40
2022-09-13T12:05:20.594Z,4.80
2022-09-13T12:07:50.825Z,7.45
2022-09-13T12:10:25.218Z,5.68
2022-09-13T12:12:55.885Z,6.50
2022-09-13T12:15:36.900Z,9.73
2022-09-13T12:18:14.686Z,12.35
2022-09-13T12:20:49.809Z,10.50
2022-09-13T12:23:26.397Z,7.70
2022-09-13T12:26:01.641Z,5.65
2022-09-13T12:28:36.423Z,6.07
2022-09-13T12:31:11.804Z,6.35
2022-09-13T12:33:42.591Z,16.52
2022-09-13T12:36:44.029Z,7.00
2022-09-13T12:39:46.866Z,30.63
2022-09-13T12:43:02.362Z,33.05
2022-09-13T12:46:12.663Z,32.10
2022-09-13T12:49:10.264Z,44.78
2022-09-13T12:52:08.587Z,28.83
2022-09-13T12:55:50.753Z,40.63
2022-09-13T12:58:51.230Z,19.35
2022-09-13T13:01:22.932Z,42.28
2022-09-13T13:03:56.161Z,36.78
2022-09-13T13:06:33.826Z,36.08
2022-09-13T13:09:07.739Z,30.48
2022-09-13T13:11:49.170Z,20.60
2022-09-13T13:14:45.430Z,25.23
2022-09-13T13:17:44.797Z,21.30
2022-09-13T13:20:49.081Z,20.60
2022-09-13T13:23:25.215Z,26.40
2022-09-13T13:26:13.623Z,22.55
2022-09-13T13:29:16.567Z,18.58
2022-09-13T13:32:07.826Z,17.55
2022-09-13T13:34:45.044Z,32.15
2022-09-13T13:37:43.926Z,14.90
2022-09-13T13:40:29.193Z,22.35
2022-09-13T13:43:32.704Z,15.45
2022-09-13T13:46:30.340Z,35.78
2022-09-13T13:49:46.280Z,12.32
2022-09-13T13:52:52.772Z,37.38
2022-09-13T13:55:44.402Z,14.18
2022-09-13T13:58:39.880Z,12.35
2022-09-13T14:01:08.240Z,17.90
2022-09-13T14:03:52.806Z,10.70
2022-09-13T14:06:30.972Z,11.50
2022-09-13T14:09:09.988Z,10.02
2022-09-13T14:11:53.786Z,8.82
2022-09-13T14:14:42.278Z,8.57
2022-09-13T14:17:56.894Z,11.40
2022-09-13T14:20:27.705Z,10.88
2022-09-13T14:23:17.500Z,11.05
2022-09-13T14:25:46.294Z,10.02
2022-09-13T14:28:23.991Z,9.95
2022-09-13T14:30:57.122Z,9.65
2022-09-13T14:33:31.426Z,9.50
2022-09-13T14:36:05.561Z,10.00
2022-09-13T14:38:36.444Z,11.75
2022-09-13T14:41:15.685Z,10.95
2022-09-13T14:43:45.315Z,9.63
2022-09-13T14:46:20.247Z,9.10
2022-09-13T14:48:52.712Z,8.43
2022-09-13T14:51:28.606Z,10.32
2022-09-13T14:54:00.739Z,9.23
2022-09-13T14:56:37.298Z,8.77
2022-09-13T14:59:14.588Z,10.50
2022-09-13T15:01:42.976Z,10.95
2022-09-13T15:04:11.667Z,13.20
2022-09-13T15:06:44.279Z,8.45
2022-09-13T15:09:27.662Z,9.25
2022-09-13T15:12:01.187Z,7.85
2022-09-13T15:14:32.478Z,8.90
2022-09-13T15:17:09.571Z,11.20
2022-09-13T15:19:41.696Z,10.63
2022-09-13T15:22:27.329Z,9.18
2022-09-13T15:25:05.007Z,9.95
2022-09-13T15:27:45.297Z,12.00
2022-09-13T15:30:25.820Z,11.48
2022-09-13T15:33:14.883Z,10.77
2022-09-13T15:35:45.370Z,9.85
2022-09-13T15:38:23.967Z,11.75
2022-09-13T15:41:03.513Z,9.65
2022-09-13T15:43:32.512Z,10.50
2022-09-13T15:46:01.832Z,10.43
2022-09-13T15:48:32.220Z,10.18
2022-09-13T15:51:10.735Z,14.38
2022-09-13T15:53:42.479Z,15.00
2022-09-13T15:56:15.357Z,13.75
2022-09-13T15:58:43.756Z,12.48
2022-09-13T16:01:13.771Z,14.13
2022-09-13T16:03:42.430Z,14.50
2022-09-13T16:06:11.510Z,15.00
2022-09-13T16:08:41.778Z,31.80
2022-09-13T16:11:10.393Z,15.68
2022-09-13T16:13:38.746Z,15.75
2022-09-13T16:16:07.590Z,20.95
2022-09-13T16:18:36.049Z,16.95
2022-09-13T16:21:04.612Z,16.92
2022-09-13T16:23:32.929Z,18.30
2022-09-13T16:26:03.004Z,16.05
2022-09-13T16:28:31.272Z,15.05
2022-09-13T16:30:59.691Z,14.35
2022-09-13T16:33:28.094Z,14.80
2022-09-13T16:36:01.482Z,14.13
2022-09-13T16:38:30.642Z,12.98
2022-09-13T16:40:58.920Z,13.02
2022-09-13T16:43:28.833Z,11.65
2022-09-13T16:45:57.347Z,12.80
2022-09-13T16:48:25.583Z,11.77
2022-09-13T16:50:53.944Z,11.95
2022-09-13T16:53:22.204Z,9.85
2022-09-13T16:55:50.594Z,9.18
2022-09-13T16:58:18.833Z,7.60
2022-09-13T17:00:48.500Z,7.43
2022-09-13T17:03:16.835Z,5.97
2022-09-13T17:05:45.166Z,8.00
2022-09-13T17:08:13.687Z,6.38
2022-09-13T17:10:42.047Z,5.53
2022-09-13T17:13:10.274Z,11.68
2022-09-13T17:15:40.485Z,8.55
2022-09-13T17:18:10.592Z,6.10
2022-09-13T17:20:45.389Z,9.80
2022-09-13T17:23:13.799Z,5.70
2022-09-13T17:25:46.533Z,16.33
2022-09-13T17:28:15.636Z,15.70
2022-09-13T17:30:45.240Z,8.32
2022-09-13T17:33:15.116Z,6.57
2022-09-13T17:35:44.125Z,8.30
2022-09-13T17:38:15.115Z,6.32
2022-09-13T17:40:43.384Z,3.92
2022-09-13T17:43:11.606Z,3.72
2022-09-13T17:45:39.881Z,7.38
2022-09-13T17:48:08.372Z,8.68
2022-09-13T17:50:38.126Z,6.80
2022-09-13T17:53:07.090Z,4.35
2022-09-13T17:55:35.358Z,8.77
2022-09-13T17:58:03.640Z,4.78
2022-09-13T18:00:32.151Z,4.60
2022-09-13T18:03:00.453Z,5.78
2022-09-13T18:05:28.785Z,9.07
2022-09-13T18:07:58.406Z,7.35
2022-09-13T18:10:49.172Z,5.82
2022-09-13T18:13:15.052Z,6.97
2022-09-13T18:15:43.442Z,7.85
2022-09-13T18:18:11.712Z,12.95
2022-09-13T18:20:40.854Z,29.80
2022-09-13T18:23:10.633Z,9.90
2022-09-13T18:25:38.967Z,6.35
2022-09-13T18:28:07.265Z,5.70
2022-09-13T18:30:35.650Z,3.58
2022-09-13T18:33:03.922Z,5.00
2022-09-13T18:35:32.250Z,3.83
2022-09-13T18:38:01.949Z,3.72
2022-09-13T18:40:31.749Z,4.18
2022-09-13T18:43:00.142Z,3.92
2022-09-13T18:45:28.625Z,3.53
2022-09-13T18:47:57.366Z,3.60
2022-09-13T18:50:26.798Z,3.53
2022-09-13T18:52:55.465Z,4.43
2022-09-13T18:55:25.130Z,3.03
2022-09-13T18:57:56.926Z,3.38
2022-09-13T19:00:27.913Z,7.32
2022-09-13T19:03:11.906Z,4.18
2022-09-13T19:05:42.489Z,5.88
2022-09-13T19:08:12.088Z,5.10
2022-09-13T19:10:40.864Z,4.93
2022-09-13T19:13:11.621Z,5.53
2022-09-13T19:18:08.590Z,3.78
2022-09-13T19:20:37.464Z,3.75
2022-09-13T19:23:06.336Z,4.28
2022-09-13T19:25:37.254Z,6.07
2022-09-13T19:28:06.668Z,6.50
2022-09-13T19:30:38.358Z,6.43
2022-09-13T19:33:06.758Z,17.10
2022-09-13T19:35:37.249Z,11.68
2022-09-13T19:38:06.215Z,8.20
2022-09-13T19:40:34.563Z,7.95
2022-09-13T19:43:03.956Z,7.28
2022-09-13T19:45:32.252Z,5.40
2022-09-13T19:48:37.030Z,5.90
2022-09-13T19:50:50.814Z,5.35
2022-09-13T19:53:19.437Z,4.07
2022-09-13T19:55:48.989Z,4.65
2022-09-13T19:58:18.114Z,3.67
2022-09-13T20:00:46.563Z,3.38
2022-09-13T20:03:16.291Z,3.17
2022-09-13T20:05:44.585Z,3.53
2022-09-13T20:08:12.966Z,5.90
2022-09-13T20:10:41.237Z,3.00
2022-09-13T20:13:09.542Z,3.00
2022-09-13T20:15:40.265Z,38.97
2022-09-13T20:18:13.185Z,6.65
2022-09-13T20:20:43.383Z,3.45
2022-09-13T20:23:11.724Z,4.20
2022-09-13T20:25:41.882Z,3.10
2022-09-13T20:28:10.772Z,2.97
2022-09-13T20:30:41.541Z,2.85
2022-09-13T20:33:10.328Z,3.40
2022-09-13T20:35:39.027Z,3.10
2022-09-13T20:38:10.153Z,3.25
2022-09-13T20:40:38.520Z,3.00
2022-09-13T20:43:06.803Z,3.53
2022-09-13T20:45:37.644Z,2.78
2022-09-13T20:48:05.991Z,2.72
2022-09-13T20:50:34.281Z,3.22
2022-09-13T20:53:02.727Z,16.13
2022-09-13T20:55:32.467Z,7.20
2022-09-13T20:58:01.636Z,3.13
2022-09-13T21:00:29.885Z,2.50
2022-09-13T21:02:58.199Z,2.70
2022-09-13T21:05:26.529Z,3.08
2022-09-13T21:08:12.369Z,5.30
2022-09-13T21:10:42.443Z,5.13
2022-09-13T21:13:10.711Z,2.33
2022-09-13T21:15:39.185Z,2.05
2022-09-13T21:18:07.453Z,6.00
2022-09-13T21:20:35.682Z,4.45
2022-09-13T21:23:03.975Z,5.20
2022-09-13T21:25:32.292Z,1.83
2022-09-13T21:28:01.890Z,1.80
2022-09-13T21:30:30.242Z,2.20
2022-09-13T21:32:58.590Z,6.30
2022-09-13T21:35:27.216Z,2.47
2022-09-13T21:37:55.457Z,2.75
2022-09-13T21:40:23.816Z,2.30
2022-09-13T21:42:52.420Z,1.92
2022-09-13T21:45:22.421Z,2.03
2022-09-13T21:47:50.711Z,3.80
2022-09-13T21:50:18.962Z,1.77
2022-09-13T21:52:47.195Z,2.05
2022-09-13T21:55:16.341Z,2.58
2022-09-13T21:57:45.410Z,2.90
2022-09-13T22:00:15.912Z,2.15
2022-09-13T22:02:45.520Z,2.17
2022-09-13T22:05:13.811Z,1.88
2022-09-13T22:07:42.020Z,4.78
2022-09-13T22:10:11.073Z,1.77
2022-09-13T22:12:39.292Z,2.20
2022-09-13T22:15:09.693Z,1.63
2022-09-13T22:17:37.906Z,2.00
2022-09-13T22:20:08.359Z,2.90
2022-09-13T22:22:36.612Z,1.75
2022-09-13T22:25:05.371Z,2.38
2022-09-13T22:27:33.616Z,1.98
2022-09-13T22:30:01.879Z,2.05
2022-09-13T22:32:30.690Z,3.00
2022-09-13T22:34:59.092Z,2.70
2022-09-13T22:37:28.735Z,2.88
2022-09-13T22:39:59.370Z,3.58
2022-09-13T22:42:27.696Z,2.20
2022-09-13T22:44:55.896Z,2.55
2022-09-13T22:47:24.234Z,2.63
2022-09-13T22:49:52.951Z,2.85
2022-09-13T22:52:21.238Z,5.80
2022-09-13T22:54:52.066Z,2.72
2022-09-13T22:57:20.328Z,4.82
2022-09-13T22:59:48.568Z,2.65
2022-09-13T23:02:16.835Z,6.13
2022-09-13T23:04:45.092Z,4.63
2022-09-13T23:07:13.387Z,2.30
2022-09-13T23:09:41.872Z,2.00
2022-09-13T23:12:11.466Z,2.65
2022-09-13T23:14:39.723Z,4.45
2022-09-13T23:17:08.662Z,2.90
2022-09-13T23:19:36.944Z,3.53
2022-09-13T23:22:05.367Z,2.85
2022-09-13T23:24:33.748Z,2.47
2022-09-13T23:27:02.044Z,3.05
2022-09-13T23:29:32.097Z,2.65
2022-09-13T23:32:00.332Z,2.15
2022-09-13T23:34:28.601Z,3.50
2022-09-13T23:36:57.101Z,2.90
2022-09-13T23:39:25.312Z,3.00
2022-09-13T23:41:53.552Z,2.65
2022-09-13T23:44:21.823Z,3.90
2022-09-13T23:46:51.550Z,1.65
2022-09-13T23:49:19.831Z,2.25
2022-09-13T23:51:48.898Z,1.77
2022-09-13T23:54:17.456Z,2.00
2022-09-13T23:56:45.961Z,1.83
2022-09-13T23:59:15.040Z,2.65
